Time;durP1;ratioP1;P1;durP2;ratioP2;P2;SDS_P1;SDS_P2;PMS_P1;PMS_P2;Temp;Humidity;BMP_temperature;BMP_pressure;BME280_temperature;BME280_humidity;BME280_pressure;Samples;Min_cycle;Max_cycle;Signal;HPM_P1;HPM_P2
2021/09/22 00:02:09;;;;;;;9.30;6.63;;;14.90;91.10;;;;;;4976147;28;20022;-75
2021/09/22 00:04:35;;;;;;;9.68;6.55;;;14.80;91.40;;;;;;4977663;28;20019;-75
2021/09/22 00:07:00;;;;;;;9.48;6.72;;;14.70;91.60;;;;;;4977302;28;20027;-75
2021/09/22 00:09:27;;;;;;;9.70;6.93;;;14.70;91.80;;;;;;4977265;28;20031;-75
2021/09/22 00:11:52;;;;;;;9.88;6.22;;;14.60;91.60;;;;;;4977786;28;20438;-75
2021/09/22 00:14:18;;;;;;;10.90;6.80;;;14.60;91.80;;;;;;4977205;28;20059;-75
2021/09/22 00:16:44;;;;;;;11.02;6.88;;;14.50;91.90;;;;;;4977108;28;20105;-75
2021/09/22 00:19:09;;;;;;;9.90;6.40;;;14.50;92.10;;;;;;4977101;28;20130;-74
2021/09/22 00:21:35;;;;;;;9.23;5.85;;;14.60;91.80;;;;;;4977024;28;20026;-75
2021/09/22 00:24:01;;;;;;;8.05;5.90;;;14.70;91.60;;;;;;4977030;28;20547;-75
2021/09/22 00:26:27;;;;;;;9.35;6.32;;;14.60;91.50;;;;;;4976932;28;20100;-75
2021/09/22 00:28:53;;;;;;;10.25;6.72;;;14.60;91.40;;;;;;4976964;28;20151;-75
2021/09/22 00:31:19;;;;;;;11.25;6.53;;;14.50;91.40;;;;;;4977152;28;20488;-75
2021/09/22 00:33:45;;;;;;;10.48;6.97;;;14.50;91.60;;;;;;4976910;28;20034;-75
2021/09/22 00:36:11;;;;;;;9.63;6.22;;;14.50;91.80;;;;;;4976545;28;20019;-75
2021/09/22 00:38:37;;;;;;;10.38;6.32;;;14.50;91.60;;;;;;4976767;28;20034;-75
2021/09/22 00:41:02;;;;;;;9.45;6.32;;;14.50;91.60;;;;;;4976723;28;20393;-75
2021/09/22 00:43:28;;;;;;;12.20;6.28;;;14.60;91.30;;;;;;4976724;28;20031;-75
2021/09/22 00:45:54;;;;;;;10.75;6.63;;;14.50;90.80;;;;;;4976719;28;20171;-75
2021/09/22 00:48:21;;;;;;;10.20;6.35;;;14.40;91.20;;;;;;4975255;28;20445;-75
2021/09/22 00:50:49;;;;;;;9.35;6.68;;;14.40;90.90;;;;;;4976811;28;20029;-75
2021/09/22 00:53:16;;;;;;;9.57;6.45;;;14.30;91.00;;;;;;4976810;28;20031;-75
2021/09/22 00:55:44;;;;;;;8.32;5.88;;;14.30;91.10;;;;;;4976739;28;20512;-75
2021/09/22 00:58:10;;;;;;;9.88;6.57;;;14.30;91.10;;;;;;4976410;28;20081;-75
2021/09/22 01:00:37;;;;;;;12.05;6.70;;;14.40;90.90;;;;;;4976648;28;20022;-74
2021/09/22 01:03:04;;;;;;;10.43;6.57;;;14.30;91.20;;;;;;4975062;28;20031;-75
2021/09/22 01:05:31;;;;;;;12.07;7.10;;;14.30;91.20;;;;;;4976559;28;20543;-75
2021/09/22 01:07:57;;;;;;;10.20;6.38;;;14.30;91.00;;;;;;4976153;28;20059;-74
2021/09/22 01:10:23;;;;;;;10.50;6.82;;;14.30;91.40;;;;;;4976173;28;20026;-75
2021/09/22 01:12:49;;;;;;;8.60;5.65;;;14.20;91.40;;;;;;4976147;28;20106;-75
2021/09/22 01:15:38;;;;;;;9.85;7.22;;;14.10;91.70;;;;;;4976351;28;20054;-75
2021/09/22 01:18:07;;;;;;;9.23;6.22;;;14.10;91.90;;;;;;4974570;28;20030;-75
2021/09/22 01:20:33;;;;;;;8.50;6.00;;;14.10;91.70;;;;;;4975902;28;20026;-75
2021/09/22 01:23:01;;;;;;;7.90;5.63;;;14.20;90.90;;;;;;4975741;28;20369;-75
2021/09/22 01:25:27;;;;;;;9.10;6.00;;;14.20;90.50;;;;;;4975926;28;20035;-76
2021/09/22 01:28:03;;;;;;;8.10;5.65;;;14.20;90.40;;;;;;4975774;28;20388;-74
2021/09/22 01:30:30;;;;;;;8.75;5.75;;;14.00;90.40;;;;;;4975824;28;20038;-75
2021/09/22 01:33:05;;;;;;;8.75;5.97;;;14.00;90.50;;;;;;4975771;28;20018;-75
2021/09/22 01:35:39;;;;;;;8.75;6.00;;;13.90;90.60;;;;;;4976232;28;20377;-75
2021/09/22 01:38:07;;;;;;;10.02;5.47;;;13.90;90.20;;;;;;4976013;28;20042;-75
2021/09/22 01:40:33;;;;;;;10.32;5.22;;;14.00;90.10;;;;;;4975867;28;20037;-75
2021/09/22 01:43:00;;;;;;;8.18;5.70;;;13.90;90.10;;;;;;4975570;28;20022;-75
2021/09/22 01:45:25;;;;;;;10.13;5.85;;;13.90;89.90;;;;;;4975509;28;20536;-74
2021/09/22 01:47:51;;;;;;;9.50;6.30;;;13.80;89.90;;;;;;4974593;28;20027;-74
2021/09/22 01:50:20;;;;;;;10.98;6.40;;;13.70;90.50;;;;;;4975711;28;20113;-75
2021/09/22 01:52:49;;;;;;;10.45;6.10;;;13.50;90.80;;;;;;4975399;28;20370;-75
2021/09/22 01:55:21;;;;;;;9.07;5.80;;;13.50;91.10;;;;;;4974135;28;20539;-74
2021/09/22 01:57:48;;;;;;;11.50;5.95;;;13.40;91.50;;;;;;4975662;28;20216;-75
2021/09/22 02:00:14;;;;;;;8.80;5.40;;;13.40;91.40;;;;;;4975503;28;20555;-75
2021/09/22 02:02:39;;;;;;;10.23;6.07;;;13.40;91.20;;;;;;4974000;28;20026;-74
2021/09/22 02:05:05;;;;;;;9.27;5.43;;;13.50;90.60;;;;;;4975726;28;20031;-75
2021/09/22 02:07:32;;;;;;;9.52;6.05;;;13.40;90.80;;;;;;4975068;28;20027;-75
2021/09/22 02:09:59;;;;;;;9.30;5.53;;;13.40;90.50;;;;;;4975362;28;20139;-75
2021/09/22 02:12:25;;;;;;;8.15;6.05;;;13.30;90.60;;;;;;4975062;28;20505;-75
2021/09/22 02:14:51;;;;;;;10.85;6.43;;;13.40;91.10;;;;;;4975005;28;20023;-75
2021/09/22 02:17:17;;;;;;;9.98;5.88;;;13.40;91.00;;;;;;4974964;28;20373;-75
2021/09/22 02:19:42;;;;;;;10.43;6.50;;;13.40;90.50;;;;;;4973490;28;20042;-74
2021/09/22 02:22:08;;;;;;;8.77;6.32;;;13.40;90.50;;;;;;4975098;28;20051;-75
2021/09/22 02:24:34;;;;;;;8.15;5.82;;;13.50;90.80;;;;;;4974855;28;20477;-75
2021/09/22 02:26:59;;;;;;;10.27;7.13;;;13.40;90.80;;;;;;4973454;28;20054;-75
2021/09/22 02:29:25;;;;;;;10.05;6.22;;;13.30;91.10;;;;;;4974579;28;20061;-75
2021/09/22 02:31:51;;;;;;;9.23;6.43;;;13.30;91.30;;;;;;4975029;28;20029;-75
2021/09/22 02:34:17;;;;;;;10.55;6.28;;;13.30;91.20;;;;;;4974755;28;20054;-75
2021/09/22 02:36:42;;;;;;;10.65;6.40;;;13.30;91.00;;;;;;4975003;28;20019;-75
2021/09/22 02:39:09;;;;;;;10.93;7.45;;;13.30;91.30;;;;;;4974952;28;20472;-75
2021/09/22 02:41:36;;;;;;;10.27;6.93;;;13.30;91.40;;;;;;4974886;28;20026;-76
2021/09/22 02:44:02;;;;;;;10.82;6.45;;;13.20;91.50;;;;;;4974895;28;20038;-75
2021/09/22 02:46:28;;;;;;;8.32;5.88;;;13.20;91.60;;;;;;4974786;28;20061;-75
2021/09/22 02:48:54;;;;;;;10.18;5.80;;;13.30;90.90;;;;;;4975055;28;20022;-75
2021/09/22 02:51:20;;;;;;;10.48;6.40;;;13.30;90.50;;;;;;4974489;28;20022;-75
2021/09/22 02:53:45;;;;;;;9.88;6.55;;;13.30;90.20;;;;;;4974506;28;20027;-74
2021/09/22 02:56:11;;;;;;;8.48;5.55;;;13.30;90.10;;;;;;4974486;28;20150;-75
2021/09/22 02:58:37;;;;;;;10.57;5.57;;;13.30;89.80;;;;;;4974205;28;20162;-76
2021/09/22 03:01:03;;;;;;;9.18;5.72;;;13.20;89.70;;;;;;4974398;28;20081;-75
2021/09/22 03:03:30;;;;;;;10.25;5.75;;;13.20;89.10;;;;;;4974369;28;20500;-75
2021/09/22 03:05:56;;;;;;;10.10;6.88;;;13.20;88.70;;;;;;4974387;28;20019;-75
2021/09/22 03:08:22;;;;;;;8.90;5.88;;;13.10;89.20;;;;;;4974289;28;20046;-75
2021/09/22 03:10:48;;;;;;;9.80;6.15;;;13.00;89.80;;;;;;4974311;28;20495;-75
2021/09/22 03:13:13;;;;;;;9.85;5.55;;;13.00;90.40;;;;;;4974320;28;20031;-75
2021/09/22 03:15:39;;;;;;;10.43;6.50;;;13.00;90.50;;;;;;4974324;28;20494;-75
2021/09/22 03:18:05;;;;;;;10.30;6.28;;;13.00;90.80;;;;;;4974007;28;20535;-75
2021/09/22 03:20:30;;;;;;;8.15;5.57;;;12.90;90.50;;;;;;4974447;28;20026;-75
2021/09/22 03:22:56;;;;;;;10.18;5.45;;;12.80;90.60;;;;;;4974070;28;20416;-75
2021/09/22 03:25:22;;;;;;;8.43;5.50;;;12.80;90.10;;;;;;4974191;28;20110;-75
2021/09/22 03:27:47;;;;;;;8.90;5.28;;;12.80;89.60;;;;;;4974152;28;20034;-76
2021/09/22 03:30:13;;;;;;;9.60;4.88;;;12.70;90.00;;;;;;4974461;28;20029;-76
2021/09/22 03:32:39;;;;;;;8.73;5.55;;;12.70;89.40;;;;;;4974113;28;20023;-76
2021/09/22 03:35:05;;;;;;;9.25;6.00;;;12.80;89.80;;;;;;4974425;28;20018;-76
2021/09/22 03:37:31;;;;;;;10.35;6.00;;;12.70;90.10;;;;;;4974078;28;20027;-76
2021/09/22 03:39:57;;;;;;;9.57;6.03;;;12.70;90.30;;;;;;4974072;28;20081;-76
2021/09/22 03:42:23;;;;;;;8.95;5.88;;;12.70;90.00;;;;;;4974075;28;20035;-76
2021/09/22 03:44:48;;;;;;;10.13;6.40;;;12.70;90.00;;;;;;4974007;28;20373;-76
2021/09/22 03:47:14;;;;;;;10.05;6.18;;;12.70;90.40;;;;;;4974231;28;20037;-76
2021/09/22 03:49:40;;;;;;;9.00;6.10;;;12.60;90.60;;;;;;4974260;28;20105;-75
2021/09/22 03:52:06;;;;;;;10.43;5.97;;;12.60;90.60;;;;;;4974241;28;20018;-76
2021/09/22 03:54:31;;;;;;;9.23;5.93;;;12.70;90.10;;;;;;4973937;28;20434;-76
2021/09/22 03:56:57;;;;;;;10.40;6.78;;;12.70;90.50;;;;;;4974133;28;20520;-76
2021/09/22 03:59:23;;;;;;;9.18;5.65;;;12.70;90.40;;;;;;4973652;28;20030;-76
2021/09/22 04:01:48;;;;;;;11.35;6.43;;;12.60;90.40;;;;;;4973893;28;20027;-76
2021/09/22 04:04:14;;;;;;;9.77;6.15;;;12.60;90.40;;;;;;4973864;28;20031;-76
2021/09/22 04:06:40;;;;;;;10.05;6.28;;;12.60;90.20;;;;;;4973750;28;20027;-76
2021/09/22 04:09:08;;;;;;;9.93;6.00;;;12.50;90.30;;;;;;4974149;28;20034;-76
2021/09/22 04:11:34;;;;;;;12.00;6.10;;;12.50;90.20;;;;;;4977487;28;20362;-76
2021/09/22 04:14:00;;;;;;;9.82;6.00;;;12.50;90.00;;;;;;4977254;28;20034;-76
2021/09/22 04:16:25;;;;;;;9.73;5.95;;;12.40;90.30;;;;;;4977158;28;20473;-75
2021/09/22 04:18:51;;;;;;;11.23;6.15;;;12.40;90.30;;;;;;4977142;28;20027;-76
2021/09/22 04:21:17;;;;;;;9.50;6.00;;;12.40;90.10;;;;;;4977036;28;20039;-76
2021/09/22 04:23:42;;;;;;;12.60;5.93;;;12.50;90.00;;;;;;4976633;28;20525;-76
2021/09/22 04:26:08;;;;;;;10.40;5.78;;;12.50;90.10;;;;;;4977314;28;20139;-76
2021/09/22 04:28:34;;;;;;;12.90;5.75;;;12.50;89.10;;;;;;4976964;28;20445;-76
2021/09/22 04:30:59;;;;;;;9.00;4.90;;;12.40;88.80;;;;;;4976962;28;20049;-76
2021/09/22 04:33:25;;;;;;;8.07;4.85;;;12.30;88.70;;;;;;4976940;28;20155;-76
2021/09/22 04:35:52;;;;;;;10.25;6.40;;;12.30;88.70;;;;;;4976883;28;20019;-76
2021/09/22 04:38:18;;;;;;;13.07;7.68;;;12.40;89.90;;;;;;4977051;28;20026;-76
2021/09/22 04:40:44;;;;;;;10.45;6.53;;;12.30;90.30;;;;;;4976781;28;20038;-76
2021/09/22 04:43:10;;;;;;;10.38;7.47;;;12.20;90.30;;;;;;4976988;28;20365;-75
2021/09/22 04:45:36;;;;;;;8.43;5.32;;;12.10;90.70;;;;;;4976976;28;20030;-76
2021/09/22 04:48:02;;;;;;;9.30;5.85;;;12.10;89.60;;;;;;4976845;28;20023;-76
2021/09/22 04:50:28;;;;;;;11.23;5.88;;;12.00;89.60;;;;;;4976576;28;20041;-76
2021/09/22 04:52:55;;;;;;;10.93;6.60;;;12.10;90.10;;;;;;4976595;28;20019;-75
2021/09/22 04:55:20;;;;;;;11.65;6.43;;;12.10;90.80;;;;;;4976507;28;20042;-76
2021/09/22 04:57:46;;;;;;;9.98;6.05;;;12.10;91.20;;;;;;4976708;28;20030;-76
2021/09/22 05:00:12;;;;;;;9.30;5.45;;;12.10;90.60;;;;;;4975140;28;20400;-76
2021/09/22 05:02:38;;;;;;;9.02;5.55;;;12.00;90.10;;;;;;4976938;28;20560;-76
2021/09/22 05:05:04;;;;;;;11.38;5.47;;;11.80;90.20;;;;;;4976573;28;20110;-75
2021/09/22 05:07:29;;;;;;;9.70;6.25;;;11.80;90.40;;;;;;4976745;28;20027;-76
2021/09/22 05:09:56;;;;;;;17.13;7.95;;;11.90;90.30;;;;;;4976503;28;20107;-76
2021/09/22 05:12:21;;;;;;;15.73;8.30;;;11.90;91.50;;;;;;4976256;28;20034;-76
2021/09/22 05:14:47;;;;;;;16.17;9.15;;;11.80;91.90;;;;;;4976392;28;20389;-75
2021/09/22 05:17:13;;;;;;;15.38;8.00;;;11.80;92.00;;;;;;4976352;28;20031;-76
2021/09/22 05:19:38;;;;;;;13.70;7.57;;;11.80;91.90;;;;;;4975970;28;20027;-76
2021/09/22 05:22:04;;;;;;;13.15;7.68;;;11.80;91.40;;;;;;4974470;28;20047;-76
2021/09/22 05:24:30;;;;;;;12.52;6.95;;;11.90;91.30;;;;;;4976301;28;20067;-76
2021/09/22 05:26:56;;;;;;;13.30;7.20;;;11.90;91.10;;;;;;4975828;28;20027;-75
2021/09/22 05:29:22;;;;;;;14.48;7.53;;;11.90;91.50;;;;;;4975841;28;20150;-76
2021/09/22 05:31:48;;;;;;;14.85;8.30;;;11.90;91.30;;;;;;4976087;28;20022;-76
2021/09/22 05:34:13;;;;;;;12.02;7.05;;;11.80;91.30;;;;;;4976043;28;20059;-75
2021/09/22 05:36:39;;;;;;;19.70;8.98;;;11.80;91.80;;;;;;4975726;28;20409;-76
2021/09/22 05:39:05;;;;;;;15.65;7.63;;;11.70;91.70;;;;;;4975727;28;20026;-76
2021/09/22 05:41:31;;;;;;;13.45;7.90;;;11.70;91.90;;;;;;4975597;28;20019;-75
2021/09/22 05:43:57;;;;;;;12.05;6.85;;;11.60;91.70;;;;;;4975619;28;20115;-75
2021/09/22 05:46:23;;;;;;;12.70;7.00;;;11.50;91.40;;;;;;4975845;28;20026;-76
2021/09/22 05:48:48;;;;;;;12.65;7.15;;;11.50;91.30;;;;;;4975412;28;20077;-76
2021/09/22 05:51:15;;;;;;;12.18;7.35;;;11.40;91.50;;;;;;4974189;28;20069;-76
2021/09/22 05:53:43;;;;;;;14.57;8.20;;;11.50;91.20;;;;;;4975694;28;20041;-75
2021/09/22 05:56:09;;;;;;;13.77;8.50;;;11.50;92.20;;;;;;4975385;28;20023;-76
2021/09/22 05:58:35;;;;;;;13.07;8.27;;;11.50;92.40;;;;;;4975611;28;20073;-75
2021/09/22 06:01:00;;;;;;;12.77;8.70;;;11.60;92.10;;;;;;4975325;28;20022;-76
2021/09/22 06:03:26;;;;;;;11.88;8.02;;;11.60;91.90;;;;;;4975532;28;20058;-76
2021/09/22 06:05:52;;;;;;;12.18;7.65;;;11.50;91.90;;;;;;4975742;28;20034;-76
2021/09/22 06:08:18;;;;;;;13.07;7.45;;;11.70;91.50;;;;;;4975051;28;20035;-76
2021/09/22 06:10:44;;;;;;;13.68;8.82;;;11.70;91.10;;;;;;4975417;28;20049;-76
2021/09/22 06:13:10;;;;;;;12.40;8.02;;;11.60;91.30;;;;;;4973799;28;20481;-75
2021/09/22 06:15:36;;;;;;;13.73;7.20;;;11.60;91.40;;;;;;4975079;28;20034;-75
2021/09/22 06:18:02;;;;;;;11.48;7.38;;;11.50;91.50;;;;;;4974984;28;20031;-76
2021/09/22 06:20:28;;;;;;;16.60;9.40;;;11.60;91.20;;;;;;4975164;28;20035;-76
2021/09/22 06:22:54;;;;;;;14.55;9.50;;;11.70;91.60;;;;;;4974698;28;20531;-76
2021/09/22 06:25:19;;;;;;;13.13;8.40;;;11.70;91.50;;;;;;4974909;28;20027;-75
2021/09/22 06:27:45;;;;;;;14.82;8.90;;;11.60;91.70;;;;;;4974831;28;20598;-76
2021/09/22 06:30:12;;;;;;;12.93;7.88;;;11.60;92.10;;;;;;4974837;28;20441;-76
2021/09/22 06:32:38;;;;;;;13.98;8.80;;;11.50;92.30;;;;;;4974589;28;20111;-76
2021/09/22 06:35:06;;;;;;;14.63;8.82;;;11.50;92.40;;;;;;4975294;28;20050;-76
2021/09/22 06:37:32;;;;;;;12.82;8.50;;;11.50;92.30;;;;;;4974707;28;20019;-75
2021/09/22 06:39:57;;;;;;;11.85;7.85;;;11.50;92.40;;;;;;4974646;28;20057;-76
2021/09/22 06:42:23;;;;;;;34.63;10.18;;;11.50;92.40;;;;;;4973861;28;20031;-75
2021/09/22 06:44:49;;;;;;;18.38;10.95;;;11.80;92.20;;;;;;4974575;28;20026;-76
2021/09/22 06:47:14;;;;;;;14.10;9.15;;;11.70;92.80;;;;;;4974489;28;20097;-75
2021/09/22 06:49:40;;;;;;;13.52;9.32;;;11.50;93.30;;;;;;4974576;28;20429;-75
2021/09/22 06:52:06;;;;;;;22.25;10.05;;;11.60;92.80;;;;;;4973310;28;20102;-76
2021/09/22 06:54:33;;;;;;;12.98;8.80;;;11.80;92.90;;;;;;4974475;28;20485;-76
2021/09/22 06:57:00;;;;;;;16.45;9.38;;;11.60;92.90;;;;;;4974746;28;20085;-76
2021/09/22 06:59:25;;;;;;;14.63;9.75;;;11.70;92.80;;;;;;4974685;28;20105;-76
2021/09/22 07:01:51;;;;;;;15.73;9.90;;;11.70;92.60;;;;;;4973152;28;20109;-76
2021/09/22 07:04:16;;;;;;;14.85;10.02;;;11.80;92.50;;;;;;4974110;28;20529;-76
2021/09/22 07:06:42;;;;;;;12.32;8.48;;;11.80;93.00;;;;;;4974291;28;20030;-75
2021/09/22 07:09:08;;;;;;;13.57;8.82;;;11.90;93.00;;;;;;4974627;28;20026;-76
2021/09/22 07:11:34;;;;;;;12.93;8.65;;;11.90;93.10;;;;;;4974636;28;20027;-79
2021/09/22 07:13:59;;;;;;;11.50;7.60;;;11.90;92.80;;;;;;4974315;28;20420;-77
2021/09/22 07:16:25;;;;;;;13.30;8.60;;;12.00;92.90;;;;;;4974637;28;20027;-76
2021/09/22 07:18:50;;;;;;;12.20;8.77;;;12.10;92.80;;;;;;4973046;28;20031;-75
2021/09/22 07:21:17;;;;;;;11.85;8.73;;;12.10;93.20;;;;;;4974590;28;20086;-78
2021/09/22 07:23:42;;;;;;;12.27;9.43;;;12.00;93.70;;;;;;4973826;28;20063;-79
2021/09/22 07:26:08;;;;;;;12.15;8.35;;;12.00;94.30;;;;;;4974194;28;20499;-77
2021/09/22 07:28:35;;;;;;;13.90;9.43;;;12.10;94.20;;;;;;4974174;28;20030;-79
2021/09/22 07:31:01;;;;;;;16.55;10.73;;;12.10;94.20;;;;;;4974192;28;20023;-78
2021/09/22 07:33:28;;;;;;;16.10;9.93;;;12.10;94.70;;;;;;4972940;28;20031;-75
2021/09/22 07:35:54;;;;;;;15.02;9.98;;;12.20;94.30;;;;;;4974192;28;20027;-75
2021/09/22 07:38:20;;;;;;;15.82;10.57;;;12.30;94.50;;;;;;4974158;28;20027;-76
2021/09/22 07:40:46;;;;;;;17.73;9.07;;;12.30;94.40;;;;;;4974676;28;20066;-75
2021/09/22 07:43:12;;;;;;;15.35;9.70;;;12.50;94.60;;;;;;4974070;28;20029;-77
2021/09/22 07:45:38;;;;;;;14.77;9.77;;;12.70;94.60;;;;;;4976537;28;20031;-80
2021/09/22 07:48:04;;;;;;;16.27;11.05;;;12.90;94.60;;;;;;4977678;28;20030;-76
2021/09/22 07:50:30;;;;;;;15.70;10.68;;;13.20;94.30;;;;;;4977752;28;20029;-75
2021/09/22 07:52:56;;;;;;;17.10;12.07;;;13.50;93.80;;;;;;4977955;28;20532;-77
2021/09/22 07:55:22;;;;;;;15.13;11.13;;;14.00;92.90;;;;;;4977755;28;20026;-75
2021/09/22 07:57:48;;;;;;;15.70;10.63;;;14.40;92.80;;;;;;4977548;28;20031;-77
2021/09/22 08:00:15;;;;;;;17.73;12.38;;;14.80;91.80;;;;;;4977544;28;20023;-77
2021/09/22 08:02:40;;;;;;;19.58;13.50;;;15.20;91.00;;;;;;4977870;28;20552;-76
2021/09/22 08:05:07;;;;;;;19.63;14.73;;;15.40;90.40;;;;;;4977656;28;20102;-76
2021/09/22 08:07:32;;;;;;;20.85;14.68;;;15.40;90.50;;;;;;4977831;28;20113;-74
2021/09/22 08:09:58;;;;;;;19.73;14.65;;;15.50;91.00;;;;;;4978406;28;20065;-74
2021/09/22 08:12:24;;;;;;;18.48;14.00;;;15.70;90.60;;;;;;4977948;28;20023;-78
2021/09/22 08:14:49;;;;;;;24.33;15.40;;;15.80;90.90;;;;;;4977795;28;20031;-78
2021/09/22 08:17:17;;;;;;;23.98;17.13;;;16.10;90.20;;;;;;4978253;28;20062;-77
2021/09/22 08:19:44;;;;;;;23.92;17.17;;;16.20;90.00;;;;;;4977893;28;20035;-76
2021/09/22 08:22:10;;;;;;;23.63;17.40;;;16.30;89.60;;;;;;4978209;28;20049;-75
2021/09/22 08:24:36;;;;;;;23.80;16.95;;;16.40;89.50;;;;;;4978018;28;20118;-78
2021/09/22 08:27:04;;;;;;;24.95;17.13;;;16.60;89.20;;;;;;4978260;28;20592;-74
2021/09/22 08:29:33;;;;;;;25.23;17.70;;;16.80;88.90;;;;;;4978354;28;20027;-76
2021/09/22 08:31:59;;;;;;;27.15;17.60;;;17.00;88.00;;;;;;4979208;28;20047;-75
2021/09/22 08:34:26;;;;;;;26.95;19.08;;;17.20;88.00;;;;;;4979765;28;20520;-76
2021/09/22 08:36:52;;;;;;;25.30;17.48;;;17.50;87.00;;;;;;4980224;28;20027;-75
2021/09/22 08:39:18;;;;;;;25.63;18.30;;;17.60;86.60;;;;;;4979261;28;20062;-76
2021/09/22 08:41:46;;;;;;;25.45;18.02;;;17.90;85.90;;;;;;4977490;28;20027;-84
2021/09/22 08:44:13;;;;;;;25.05;18.33;;;18.20;85.00;;;;;;4976748;28;20401;-77
2021/09/22 08:46:40;;;;;;;26.42;19.75;;;18.60;82.90;;;;;;4976722;28;20023;-76
2021/09/22 08:49:07;;;;;;;30.92;21.90;;;18.70;81.90;;;;;;4976866;28;20500;-75
2021/09/22 08:51:34;;;;;;;27.55;20.98;;;18.50;92.40;;;;;;4976599;28;20397;-75
2021/09/22 08:54:00;;;;;;;31.80;22.02;;;18.20;91.70;;;;;;4976602;28;20026;-77
2021/09/22 08:56:26;;;;;;;29.90;20.75;;;18.30;92.30;;;;;;4976123;28;20034;-73
2021/09/22 08:58:53;;;;;;;27.27;20.48;;;18.30;92.20;;;;;;4976484;28;20027;-74
2021/09/22 09:01:21;;;;;;;27.92;20.48;;;18.20;91.90;;;;;;4976461;28;20051;-75
2021/09/22 09:03:48;;;;;;;24.38;19.13;;;18.30;91.40;;;;;;4976427;28;20404;-76
2021/09/22 09:06:21;;;;;;;26.63;20.45;;;18.50;90.60;;;;;;4976386;28;20533;-76
2021/09/22 09:08:51;;;;;;;30.63;21.35;;;18.90;91.10;;;;;;4976582;28;20055;-77
2021/09/22 09:11:33;;;;;;;28.45;20.98;;;19.20;91.20;;;;;;4976347;28;20400;-75
2021/09/22 09:14:03;;;;;;;27.05;20.52;;;19.40;90.70;;;;;;4976532;28;20027;-76
2021/09/22 09:16:37;;;;;;;25.88;19.02;;;19.60;85.40;;;;;;4976177;28;20026;-76
2021/09/22 09:19:19;;;;;;;25.65;19.15;;;19.80;83.10;;;;;;4976158;28;20489;-76
2021/09/22 09:22:07;;;;;;;27.35;19.27;;;20.20;82.00;;;;;;4976104;28;20444;-75
2021/09/22 09:24:45;;;;;;;27.67;18.80;;;20.40;80.50;;;;;;4976347;28;20086;-75
2021/09/22 09:27:12;;;;;;;24.83;18.77;;;20.60;81.70;;;;;;4976022;28;20489;-76
2021/09/22 09:29:40;;;;;;;24.27;18.33;;;20.50;81.00;;;;;;4975938;28;20027;-75
2021/09/22 09:32:14;;;;;;;24.75;18.38;;;20.50;74.80;;;;;;4975890;28;20495;-76
2021/09/22 09:34:56;;;;;;;26.75;19.15;;;20.60;80.60;;;;;;4976151;28;20030;-75
2021/09/22 09:37:33;;;;;;;24.35;18.00;;;20.50;80.10;;;;;;4976313;28;20031;-76
2021/09/22 09:40:19;;;;;;;23.00;17.38;;;20.60;77.30;;;;;;4976008;28;20468;-76
2021/09/22 09:42:47;;;;;;;24.27;18.05;;;20.60;77.80;;;;;;4975686;28;20106;-75
2021/09/22 09:45:14;;;;;;;21.08;16.58;;;20.70;80.50;;;;;;4975922;28;20026;-75
2021/09/22 09:47:43;;;;;;;21.10;16.67;;;20.60;78.90;;;;;;4975762;28;20034;-77
2021/09/22 09:50:22;;;;;;;27.45;17.60;;;20.60;78.50;;;;;;4976069;28;20019;-76
2021/09/22 09:52:51;;;;;;;20.55;15.30;;;20.70;79.40;;;;;;4975411;28;20041;-76
2021/09/22 09:55:17;;;;;;;22.02;16.42;;;20.90;79.90;;;;;;4975994;28;20060;-75
2021/09/22 09:57:51;;;;;;;19.65;13.77;;;21.00;76.50;;;;;;4975620;28;20114;-76
2021/09/22 10:00:39;;;;;;;22.90;15.02;;;21.00;73.80;;;;;;4975697;28;20505;-76
2021/09/22 10:03:16;;;;;;;19.30;15.35;;;21.00;75.30;;;;;;4975587;28;20031;-75
2021/09/22 10:05:42;;;;;;;18.17;13.57;;;21.00;76.60;;;;;;4975847;28;20465;-75
2021/09/22 10:08:13;;;;;;;23.17;16.08;;;21.00;76.10;;;;;;4974396;28;20034;-76
2021/09/22 10:10:42;;;;;;;16.55;12.98;;;21.00;76.70;;;;;;4975177;28;20015;-76
2021/09/22 10:13:08;;;;;;;19.92;14.10;;;21.00;75.60;;;;;;4975683;28;20030;-75
2021/09/22 10:15:35;;;;;;;18.80;13.32;;;21.00;76.50;;;;;;4975101;28;20029;-76
2021/09/22 10:18:01;;;;;;;21.13;14.02;;;20.70;76.20;;;;;;4975108;28;20105;-76
2021/09/22 10:20:27;;;;;;;19.50;14.15;;;20.50;76.90;;;;;;4974959;28;20077;-75
2021/09/22 10:22:53;;;;;;;18.55;13.20;;;20.50;77.30;;;;;;4974993;28;20528;-77
2021/09/22 10:25:21;;;;;;;18.25;13.20;;;20.30;76.60;;;;;;4975180;28;20039;-76
2021/09/22 10:27:48;;;;;;;16.40;12.80;;;20.20;77.60;;;;;;4974855;28;20389;-76
2021/09/22 10:30:15;;;;;;;15.77;12.00;;;20.10;79.80;;;;;;4974895;28;20027;-76
2021/09/22 10:32:49;;;;;;;17.60;12.75;;;20.00;77.60;;;;;;4975369;28;20523;-75
2021/09/22 10:35:20;;;;;;;18.63;13.10;;;19.80;77.20;;;;;;4974803;28;20477;-76
2021/09/22 10:37:46;;;;;;;17.90;14.10;;;19.60;80.70;;;;;;4974741;28;20546;-76
2021/09/22 10:40:38;;;;;;;17.67;13.80;;;19.50;80.10;;;;;;4974669;28;20031;-75
2021/09/22 10:43:19;;;;;;;18.17;13.20;;;19.40;82.00;;;;;;4961276;28;20408;-75
2021/09/22 10:46:06;;;;;;;15.82;12.15;;;19.40;81.80;;;;;;4974589;28;20062;-76
2021/09/22 10:48:33;;;;;;;16.23;13.10;;;19.50;79.60;;;;;;4975050;28;20026;-75
2021/09/22 10:51:04;;;;;;;18.00;13.32;;;19.50;79.60;;;;;;4973323;28;20038;-75
2021/09/22 10:53:30;;;;;;;14.93;11.40;;;19.50;82.90;;;;;;4974870;28;20492;-76
2021/09/22 10:56:15;;;;;;;16.77;12.02;;;19.50;78.70;;;;;;4974471;28;20030;-75
2021/09/22 10:58:46;;;;;;;16.33;12.32;;;19.30;79.20;;;;;;4974523;28;20023;-76
2021/09/22 11:01:32;;;;;;;16.95;11.75;;;19.30;80.10;;;;;;4974698;28;20031;-76
2021/09/22 11:04:09;;;;;;;15.43;11.73;;;19.30;80.70;;;;;;4974990;28;20031;-75
2021/09/22 11:09:22;;;;;;;16.88;12.20;;;19.40;81.40;;;;;;4974562;28;20086;-76
2021/09/22 11:12:09;;;;;;;16.88;12.45;;;19.20;80.00;;;;;;4974705;28;20031;-76
2021/09/22 11:14:43;;;;;;;16.73;12.23;;;19.20;80.10;;;;;;4974672;28;20029;-76
2021/09/22 11:17:19;;;;;;;15.30;10.68;;;19.20;80.10;;;;;;4974620;28;20102;-76
2021/09/22 11:19:59;;;;;;;14.90;10.68;;;19.20;79.80;;;;;;4977023;28;20026;-75
2021/09/22 11:22:31;;;;;;;14.23;10.52;;;19.10;79.10;;;;;;4978222;28;20047;-76
2021/09/22 11:25:03;;;;;;;14.55;10.98;;;19.10;80.70;;;;;;4978490;28;20054;-75
2021/09/22 11:27:29;;;;;;;14.40;9.85;;;19.00;79.80;;;;;;4978025;28;20022;-75
2021/09/22 11:30:01;;;;;;;15.77;9.90;;;19.00;80.30;;;;;;4978116;28;20385;-75
2021/09/22 11:32:34;;;;;;;15.05;10.70;;;19.00;78.10;;;;;;4978068;28;20111;-76
2021/09/22 11:35:05;;;;;;;15.10;11.38;;;19.00;78.90;;;;;;4978571;28;20022;-75
2021/09/22 11:37:47;;;;;;;13.88;10.40;;;19.00;77.60;;;;;;4978249;28;20030;-76
2021/09/22 11:40:17;;;;;;;13.93;10.90;;;18.90;79.90;;;;;;4978474;28;20019;-75
2021/09/22 11:43:03;;;;;;;13.63;9.90;;;18.90;80.70;;;;;;4978163;28;20034;-75
2021/09/22 11:45:33;;;;;;;15.98;9.75;;;19.00;81.10;;;;;;4978029;28;20477;-76
2021/09/22 11:47:58;;;;;;;14.07;10.25;;;19.10;80.20;;;;;;4976466;28;20047;-75
2021/09/22 11:50:42;;;;;;;13.90;10.57;;;19.10;80.50;;;;;;4976469;28;20061;-76
2021/09/22 11:53:13;;;;;;;13.65;10.18;;;19.10;78.50;;;;;;4978018;28;20065;-76
2021/09/22 11:55:40;;;;;;;14.63;10.82;;;19.10;78.90;;;;;;4977986;28;20031;-75
2021/09/22 11:58:10;;;;;;;12.73;9.77;;;19.10;78.90;;;;;;4977606;28;20392;-76
2021/09/22 12:00:38;;;;;;;13.30;10.52;;;19.10;80.00;;;;;;4977611;28;20465;-77
2021/09/22 12:03:08;;;;;;;12.82;10.02;;;19.20;79.40;;;;;;4977569;28;20053;-77
2021/09/22 12:05:34;;;;;;;14.30;10.38;;;19.10;78.80;;;;;;4978026;28;20515;-75
2021/09/22 12:08:00;;;;;;;14.38;10.38;;;19.20;79.30;;;;;;4977363;28;20109;-76
2021/09/22 12:10:26;;;;;;;12.00;9.45;;;19.30;79.50;;;;;;4977432;28;20102;-76
2021/09/22 12:12:52;;;;;;;19.08;10.82;;;19.40;79.20;;;;;;4977334;28;20030;-76
2021/09/22 12:15:18;;;;;;;13.80;10.07;;;19.30;76.80;;;;;;4977540;28;20370;-77
2021/09/22 12:17:44;;;;;;;12.30;9.63;;;19.30;79.30;;;;;;4977567;28;20491;-78
2021/09/22 12:20:15;;;;;;;13.82;9.38;;;19.30;78.90;;;;;;4976881;28;20031;-76
2021/09/22 12:22:44;;;;;;;13.77;10.50;;;19.30;80.00;;;;;;4975564;28;20424;-76
2021/09/22 12:25:10;;;;;;;14.45;10.15;;;19.30;78.40;;;;;;4977166;28;20413;-76
2021/09/22 12:27:39;;;;;;;13.55;10.35;;;19.40;77.00;;;;;;4977025;28;20098;-76
2021/09/22 12:30:07;;;;;;;12.15;9.60;;;19.40;78.50;;;;;;4976389;28;20105;-76
2021/09/22 12:32:35;;;;;;;14.13;10.38;;;19.50;77.20;;;;;;4975576;28;20022;-77
2021/09/22 12:35:06;;;;;;;13.48;10.13;;;19.50;75.60;;;;;;4976956;28;20030;-75
2021/09/22 12:37:33;;;;;;;11.77;8.77;;;19.50;76.10;;;;;;4976494;28;20031;-76
2021/09/22 12:40:05;;;;;;;12.02;8.52;;;19.50;75.50;;;;;;4976791;28;20034;-75
2021/09/22 12:42:38;;;;;;;12.80;9.23;;;19.50;76.40;;;;;;4976763;28;20054;-76